首页
METAR-TAF:

METAR-TAF

机场 :

热舒夫, 波兰

纬度: 50-06N, 经度: 022-03E, 海拔: 200米

当前天气观测

该预报发布于34分钟前的08:00 UTC
风速11节,风向南转西南
温度 26°C
湿度 54%
气压 1016 hPa
能见度10公里或以上
1500米以下无云,无积雨云

METAR: EPRZ 190800Z 21011KT CAVOK 26/16 Q1016

时间: 10:34 (08:34 UTC)

预报

该预报发布于3小时和4分钟前的05:30 UTC
预报有效从19日的 06点(UTC)到 20日的 06点(UTC)
风速10节,风向南转西南
能见度10公里或以上
1500米以下无云,无积雨云
成为
从 19日的 18点(UTC)到 19日的 21点(UTC)
风速7节,风向西转西北

TAF: EPRZ 190530Z 1906/2006 20010KT CAVOK BECMG 1918/1921 29007KT

超过4000个机场的气象观测和天气预报(METAR&TAF报告)。

可查询的气象台以黄色和红色小点在地图上表示。

将鼠标移到小点上方,可查看气象台名称。

然后点击查看天气观测和预报。

如需切换地图:点击带黑十字的绿色按钮放大地图;点击带横线的绿色按钮缩小地图;或者点击绿色箭头查看邻近地区的地图。


METAR-TAF: